Oregon City, Oregon
Current Conditions -  °F | °C
As of 6:53 AM on Friday 24 Oct 2014 (Local Time) from KUAO Reporting Station
Clear Clear  
Wind Chill: 47°   Ceiling: Unl
Heat Index: 49°   Visibility: 10mi
Dew Point: 47°   Wind: 5mph
Humidity: 93%   Direction: 20°NNE
Pressure: 30.01"   Gusts: NA
Location:  45.34°N, 122.59°W
Report Text: KUAO 241353Z AUTO 02004KT 10SM CLR 09/08 A3001 RMK AO2 SLP163 T00940083
Loading
Personal Weather Stations






























Interactive Weather Map
Tropical Storm Tracking
New forecast layout! Learn more

10-Day Weather Forecast

Advertisements
Track Severe Weather on mobile